Portada
METAR-TAF:

METAR-TAF

Aeroports :

Pohnpei, Micronèsia

latitud: 06-59N, longitud: 158-12E, altitud: 2 m

Observació

L'informe es va fer fa 5 hores i 27 minuts, a les 02:54 UTC
Vent 7 kt del Est/Nord-Est
Temperatura 31°C
Humitat 75%
Pressió 1009 hPa
Visibilitat: 24.1 km
Núvols disperses a una alçada de 1800 ft
Cel cobert a una alçada de 30000 ft

METAR: PTPN 080254Z 07007KT 15SM SCT018 OVC300 31/26 A2981 RMK LAST

Hora: 19:21 (08:21 UTC)

Pronòstic

L'informe es va fer fa 2 hores i 43 minuts, a les 05:38 UTC
Pronòstic vàlid del 08 a les 06 UTC al 09 a les 06 UTC
Vent 10 kt del Est/Nord-Est
Visibilitat: 10 km
Núvols disperses a una alçada de 1800 ft

TAF: PTPN 080538Z 0806/0906 07010KT P6SM SCT018

Observacions i pronòstics meteorològics de més de 4000 aeroports (METAR i TAF).

Les estacions disponibles són els punts grocs i vermells al mapa.

Posi el ratolí al punt desitjat per veure el nom de l'estació.

Feu clic per veure les observacions i els pronòstics meteorològics.

Per canviar el mapa: feu clic els botons verds amb una creu de color negre per apropar; al botó verd amb un guió per allunyar la imatge; o en les fletxes verdes per a mapes adjacents.


METAR-TAF: